createdAt,value
2023-02-22T00:04:30.448Z,2.63
2023-02-22T00:09:34.337Z,2.77
2023-02-22T00:14:40.315Z,2.80
2023-02-22T00:19:43.951Z,2.40
2023-02-22T00:24:48.318Z,2.90
2023-02-22T00:29:56.931Z,3.20
2023-02-22T00:35:00.531Z,3.57
2023-02-22T00:40:08.372Z,3.10
2023-02-22T00:45:14.581Z,2.83
2023-02-22T00:50:18.900Z,3.30
2023-02-22T00:55:24.928Z,3.23
2023-02-22T01:00:32.090Z,3.20
2023-02-22T01:05:36.073Z,2.83
2023-02-22T01:10:41.116Z,2.60
2023-02-22T01:15:46.035Z,2.50
2023-02-22T01:20:49.921Z,2.50
2023-02-22T01:25:54.080Z,2.00
2023-02-22T01:30:59.444Z,2.57
2023-02-22T01:36:03.708Z,2.03
2023-02-22T01:41:07.649Z,2.80
2023-02-22T01:46:26.173Z,2.10
2023-02-22T01:51:37.458Z,2.00
2023-02-22T01:56:47.102Z,1.83
2023-02-22T02:01:52.526Z,2.80
2023-02-22T02:06:58.611Z,2.53
2023-02-22T02:12:02.663Z,2.00
2023-02-22T02:17:10.306Z,1.50
2023-02-22T02:22:43.582Z,1.70
2023-02-22T02:28:11.716Z,1.80
2023-02-22T02:33:21.690Z,1.80
2023-02-22T02:38:35.212Z,1.53
2023-02-22T02:43:45.332Z,1.50
2023-02-22T02:48:54.777Z,1.60
2023-02-22T02:54:00.783Z,1.60
2023-02-22T02:59:04.431Z,1.30
2023-02-22T03:04:34.281Z,1.73
2023-02-22T03:09:47.651Z,1.20
2023-02-22T03:15:01.339Z,1.53
2023-02-22T03:20:13.206Z,1.53
2023-02-22T03:25:23.487Z,1.80
2023-02-22T03:30:37.901Z,1.10
2023-02-22T03:35:49.162Z,1.33
2023-02-22T03:40:55.514Z,1.47
2023-02-22T03:46:00.867Z,1.30
2023-02-22T03:51:07.393Z,1.40
2023-02-22T03:56:14.682Z,1.70
2023-02-22T04:01:19.907Z,1.77
2023-02-22T04:06:25.139Z,1.53
2023-02-22T04:11:29.596Z,1.30
2023-02-22T04:16:33.489Z,1.63
2023-02-22T04:21:39.211Z,1.83
2023-02-22T04:26:47.197Z,1.30
2023-02-22T04:31:51.476Z,2.00
2023-02-22T04:36:56.539Z,1.90
2023-02-22T04:42:01.045Z,1.83
2023-02-22T04:47:04.960Z,1.43
2023-02-22T04:52:10.035Z,1.70
2023-02-22T04:57:16.515Z,1.90
2023-02-22T05:02:20.877Z,1.60
2023-02-22T05:07:25.824Z,1.70
2023-02-22T05:12:29.378Z,1.70
2023-02-22T05:17:33.062Z,2.57
2023-02-22T05:22:37.985Z,2.10
2023-02-22T05:27:42.144Z,1.83
2023-02-22T05:32:47.169Z,2.10
2023-02-22T05:37:52.642Z,2.10
2023-02-22T05:42:57.710Z,1.63
2023-02-22T05:48:01.421Z,1.73
2023-02-22T05:53:06.602Z,1.57
2023-02-22T05:58:10.240Z,2.10
2023-02-22T06:03:14.088Z,2.20
2023-02-22T06:08:19.922Z,2.57
2023-02-22T06:13:23.841Z,1.70
2023-02-22T06:18:30.356Z,2.30
2023-02-22T06:23:35.330Z,1.60
2023-02-22T06:28:38.866Z,2.80
2023-02-22T06:33:42.452Z,2.10
2023-02-22T06:38:47.388Z,2.50
2023-02-22T06:43:50.935Z,2.60
2023-02-22T06:48:54.877Z,1.83
2023-02-22T06:53:59.772Z,1.77
2023-02-22T06:59:03.414Z,1.70
2023-02-22T07:04:06.991Z,1.93
2023-02-22T07:09:12.941Z,2.07
2023-02-22T07:14:17.946Z,2.97
2023-02-22T07:19:21.685Z,2.73
2023-02-22T07:24:28.357Z,2.40
2023-02-22T07:29:33.459Z,2.30
2023-02-22T07:34:37.285Z,1.93
2023-02-22T07:39:43.700Z,2.10
2023-02-22T07:44:47.301Z,2.27
2023-02-22T07:49:51.285Z,2.63
2023-02-22T07:54:56.531Z,2.57
2023-02-22T08:00:00.108Z,2.80
2023-02-22T08:05:04.579Z,2.37
2023-02-22T08:10:18.926Z,2.67
2023-02-22T08:15:25.539Z,2.87
2023-02-22T08:20:30.168Z,3.17
2023-02-22T08:25:36.097Z,4.23
2023-02-22T08:30:42.746Z,4.20
2023-02-22T08:35:48.679Z,3.30
2023-02-22T08:40:53.811Z,5.07
2023-02-22T08:45:57.976Z,4.17
2023-02-22T08:51:01.562Z,4.63
2023-02-22T08:56:07.081Z,4.73
2023-02-22T09:01:10.720Z,5.43
2023-02-22T09:06:14.410Z,5.10
2023-02-22T09:11:19.610Z,4.60
2023-02-22T09:16:23.252Z,6.53
2023-02-22T09:21:26.873Z,6.30
2023-02-22T09:26:31.764Z,6.70
2023-02-22T09:31:37.294Z,6.40
2023-02-22T09:36:41.536Z,6.10
2023-02-22T09:41:52.696Z,7.30
2023-02-22T09:46:56.665Z,6.73
2023-02-22T09:52:04.913Z,7.10
2023-02-22T09:57:16.125Z,6.10
2023-02-22T10:02:27.251Z,5.60
2023-02-22T10:07:37.000Z,5.90
2023-02-22T10:12:49.466Z,6.33
2023-02-22T10:18:04.926Z,6.43
2023-02-22T10:23:20.733Z,5.83
2023-02-22T10:28:30.957Z,5.90
2023-02-22T10:33:40.836Z,6.77
2023-02-22T10:38:51.809Z,5.60
2023-02-22T10:43:57.483Z,5.00
2023-02-22T10:49:07.111Z,5.67
2023-02-22T10:54:26.894Z,5.40
2023-02-22T10:59:34.332Z,5.03
2023-02-22T11:04:49.545Z,5.90
2023-02-22T11:09:57.190Z,4.83
2023-02-22T11:15:26.959Z,4.30
2023-02-22T11:20:34.861Z,5.33
2023-02-22T11:25:42.261Z,5.17
2023-02-22T11:30:50.864Z,5.37
2023-02-22T11:35:55.775Z,4.47
2023-02-22T11:41:15.577Z,4.40
2023-02-22T11:46:22.560Z,4.13
2023-02-22T11:51:39.402Z,3.93
2023-02-22T11:56:46.736Z,4.53
2023-02-22T12:01:56.689Z,5.20
2023-02-22T12:07:23.885Z,5.40
2023-02-22T12:12:36.476Z,4.60
2023-02-22T12:18:06.031Z,4.73
2023-02-22T12:23:19.582Z,4.53
2023-02-22T12:28:27.921Z,4.67
2023-02-22T12:33:42.570Z,4.07
2023-02-22T12:38:52.315Z,2.43
2023-02-22T12:44:03.093Z,3.20
2023-02-22T12:49:17.735Z,3.03
2023-02-22T12:54:27.959Z,3.17
2023-02-22T12:59:36.274Z,3.50
2023-02-22T13:04:41.611Z,3.97
2023-02-22T13:10:04.221Z,2.40
2023-02-22T13:15:20.023Z,3.23
2023-02-22T13:20:31.268Z,2.70
2023-02-22T13:25:42.295Z,3.30
2023-02-22T13:30:50.895Z,2.50
2023-02-22T13:36:09.935Z,2.60
2023-02-22T13:41:39.512Z,2.47
2023-02-22T13:47:13.650Z,2.90
2023-02-22T13:52:23.301Z,2.00
2023-02-22T13:57:30.291Z,2.83
2023-02-22T14:02:55.358Z,2.40
2023-02-22T14:08:00.310Z,2.10
2023-02-22T14:13:06.355Z,2.13
2023-02-22T14:18:17.978Z,2.57
2023-02-22T14:23:37.149Z,2.20
2023-02-22T14:28:50.138Z,2.23
2023-02-22T14:34:08.951Z,2.73
2023-02-22T14:39:23.331Z,2.13
2023-02-22T14:44:31.355Z,2.47
2023-02-22T14:49:39.052Z,1.77
2023-02-22T14:54:54.278Z,1.90
2023-02-22T15:00:11.708Z,1.97
2023-02-22T15:05:16.349Z,2.00
2023-02-22T15:10:28.077Z,2.20
2023-02-22T15:15:32.733Z,1.50
2023-02-22T15:20:38.379Z,2.40
2023-02-22T15:25:50.558Z,1.83
2023-02-22T15:31:32.428Z,2.60
2023-02-22T15:36:36.011Z,2.10
2023-02-22T15:41:41.234Z,1.90
2023-02-22T15:46:44.900Z,2.40
2023-02-22T15:51:54.963Z,1.60
2023-02-22T15:57:00.000Z,1.60
2023-02-22T16:02:06.474Z,1.43
2023-02-22T16:07:17.018Z,1.40
2023-02-22T16:12:29.553Z,1.37
2023-02-22T16:17:41.133Z,1.20
2023-02-22T16:22:49.271Z,1.30
2023-02-22T16:27:57.490Z,1.23
2023-02-22T16:33:05.435Z,1.10
2023-02-22T16:38:16.721Z,1.33
2023-02-22T16:43:24.177Z,2.07
2023-02-22T16:48:30.397Z,1.60
2023-02-22T16:53:34.421Z,2.20
2023-02-22T16:58:41.686Z,2.00
2023-02-22T17:03:45.626Z,1.83
2023-02-22T17:08:51.869Z,2.20
2023-02-22T17:13:56.887Z,1.70
2023-02-22T17:19:00.529Z,1.83
2023-02-22T17:24:04.220Z,1.50
2023-02-22T17:29:09.465Z,1.80
2023-02-22T17:34:13.225Z,1.80
2023-02-22T17:39:17.184Z,1.53
2023-02-22T17:44:22.467Z,1.80
2023-02-22T17:49:26.048Z,1.67
2023-02-22T17:54:30.623Z,1.90
2023-02-22T17:59:35.652Z,1.73
2023-02-22T18:04:40.437Z,2.03
2023-02-22T18:09:44.107Z,1.57
2023-02-22T18:14:49.287Z,1.60
2023-02-22T18:19:52.846Z,1.50
2023-02-22T18:25:00.873Z,1.60
2023-02-22T18:30:08.134Z,1.87
2023-02-22T18:35:11.828Z,1.30
2023-02-22T18:40:18.875Z,1.50
2023-02-22T18:45:24.147Z,1.30
2023-02-22T18:50:28.823Z,1.20
2023-02-22T18:55:32.361Z,2.00
2023-02-22T19:00:37.954Z,1.60
2023-02-22T19:05:41.869Z,1.80
2023-02-22T19:10:49.361Z,1.70
2023-02-22T19:15:54.350Z,1.40
2023-02-22T19:20:58.499Z,1.90
2023-02-22T19:26:02.064Z,1.40
2023-02-22T19:31:15.554Z,1.60
2023-02-22T19:36:20.520Z,1.50
2023-02-22T19:41:25.090Z,1.13
2023-02-22T19:46:30.089Z,1.10
2023-02-22T19:51:34.264Z,1.27
2023-02-22T19:56:38.189Z,1.30
2023-02-22T20:01:44.704Z,1.53
2023-02-22T20:06:51.805Z,1.70
2023-02-22T20:11:55.406Z,1.50
2023-02-22T20:17:01.245Z,1.63
2023-02-22T20:22:05.064Z,1.60
2023-02-22T20:27:09.138Z,1.73
2023-02-22T20:32:15.401Z,1.83
2023-02-22T20:37:19.027Z,1.67
2023-02-22T20:42:22.567Z,1.80
2023-02-22T20:47:27.598Z,2.10
2023-02-22T20:52:31.144Z,1.90
2023-02-22T20:57:35.121Z,1.83
2023-02-22T21:02:40.080Z,1.90
2023-02-22T21:07:43.715Z,2.10
2023-02-22T21:12:47.785Z,1.93
2023-02-22T21:17:53.969Z,2.00
2023-02-22T21:22:57.549Z,2.20
2023-02-22T21:28:01.198Z,2.20
2023-02-22T21:33:06.700Z,2.20
2023-02-22T21:38:14.273Z,1.87
2023-02-22T21:43:19.004Z,2.27
2023-02-22T21:48:26.564Z,2.40
2023-02-22T21:53:30.152Z,2.67
2023-02-22T21:58:34.099Z,2.40
2023-02-22T22:03:39.086Z,2.80
2023-02-22T22:08:46.046Z,2.67
2023-02-22T22:13:50.039Z,2.57
2023-02-22T22:18:55.408Z,2.57
2023-02-22T22:23:58.964Z,2.37
2023-02-22T22:29:04.328Z,2.43
2023-02-22T22:34:09.332Z,2.60
2023-02-22T22:39:13.964Z,2.73
2023-02-22T22:44:22.108Z,2.83
2023-02-22T22:49:29.267Z,3.00
2023-02-22T22:54:33.039Z,2.80
2023-02-22T22:59:37.462Z,3.07
2023-02-22T23:04:42.415Z,2.93
2023-02-22T23:09:46.079Z,3.03
2023-02-22T23:14:51.980Z,2.77
2023-02-22T23:19:56.996Z,2.70
2023-02-22T23:25:00.993Z,2.53
2023-02-22T23:30:05.624Z,3.23
2023-02-22T23:35:12.394Z,3.20
2023-02-22T23:40:18.288Z,2.97
2023-02-22T23:45:25.728Z,3.00
2023-02-22T23:50:32.289Z,3.40
2023-02-22T23:55:39.075Z,2.97
